Time;durP1;ratioP1;P1;durP2;ratioP2;P2;SDS_P1;SDS_P2;PMS_P1;PMS_P2;Temp;Humidity;BMP_temperature;BMP_pressure;BME280_temperature;BME280_humidity;BME280_pressure;Samples;Min_cycle;Max_cycle;Signal;HPM_P1;HPM_P2
2022/10/17 00:00:39;;;;;;;28.70;18.10;;;;;;;11.84;87.30;99429.46;106419;1310;138842;-69
2022/10/17 00:03:26;;;;;;;31.30;19.60;;;;;;;11.77;87.22;99431.46;106524;1310;22326;-69
2022/10/17 00:05:54;;;;;;;27.90;18.30;;;;;;;11.72;87.24;99431.33;106369;1298;138366;-69
2022/10/17 00:08:21;;;;;;;27.10;19.00;;;;;;;11.68;87.38;99433.38;106471;1311;22231;-69
2022/10/17 00:10:59;;;;;;;30.50;18.50;;;;;;;11.67;87.57;99438.52;106368;1297;139052;-70
2022/10/17 00:13:27;;;;;;;26.50;17.70;;;;;;;11.65;87.85;99440.31;106464;1313;22175;-70
2022/10/17 00:15:53;;;;;;;29.70;18.60;;;;;;;11.63;87.81;99444.52;106455;1307;22207;-69
2022/10/17 00:18:21;;;;;;;28.40;18.00;;;;;;;11.62;87.75;99446.77;106437;1310;138397;-70
2022/10/17 00:20:47;;;;;;;27.20;18.50;;;;;;;11.60;87.84;99445.80;106829;1302;22895;-69
2022/10/17 00:23:14;;;;;;;28.30;17.60;;;;;;;11.58;87.83;99442.82;106708;1303;138768;-69
2022/10/17 00:25:41;;;;;;;28.30;18.20;;;;;;;11.55;88.19;99445.95;106512;1298;22239;-69
2022/10/17 00:28:09;;;;;;;26.30;16.90;;;;;;;11.54;88.03;99446.06;106720;1297;22777;-70
2022/10/17 00:30:37;;;;;;;25.80;17.70;;;;;;;11.51;88.01;99449.70;106373;1312;138573;-70
2022/10/17 00:33:04;;;;;;;25.50;18.30;;;;;;;11.49;88.01;99454.92;106448;1313;22393;-69
2022/10/17 00:35:31;;;;;;;32.70;18.30;;;;;;;11.48;88.22;99454.60;106406;1295;138395;-69
2022/10/17 00:37:58;;;;;;;30.00;17.40;;;;;;;11.46;88.38;99450.67;106481;1310;23019;-70
2022/10/17 00:40:25;;;;;;;26.90;18.20;;;;;;;11.44;88.15;99452.96;106570;1310;22878;-70
2022/10/17 00:42:52;;;;;;;26.80;17.90;;;;;;;11.44;88.48;99455.90;106417;1310;139073;-69
2022/10/17 00:45:23;;;;;;;29.00;19.60;;;;;;;11.43;88.52;99456.36;106524;1310;22432;-69
2022/10/17 00:47:54;;;;;;;27.30;17.70;;;;;;;11.44;88.65;99455.39;106326;1312;138414;-69
2022/10/17 00:50:23;;;;;;;25.20;17.10;;;;;;;11.43;88.68;99451.46;106506;1313;22893;-69
2022/10/17 00:52:51;;;;;;;27.70;17.90;;;;;;;11.43;89.00;99452.27;106654;1306;138612;-70
2022/10/17 00:55:29;;;;;;;29.20;17.70;;;;;;;11.41;89.01;99452.06;106522;1312;22180;-70
2022/10/17 00:57:59;;;;;;;26.20;16.80;;;;;;;11.40;88.81;99449.10;106767;1300;22594;-69
2022/10/17 01:00:26;;;;;;;28.10;18.20;;;;;;;11.41;88.92;99449.22;106398;1311;138546;-70
2022/10/17 01:02:53;;;;;;;27.10;17.60;;;;;;;11.42;89.05;99442.74;106480;1311;22300;-69
2022/10/17 01:05:21;;;;;;;25.00;17.10;;;;;;;11.43;89.17;99442.02;106419;1312;138601;-69
2022/10/17 01:07:51;;;;;;;30.30;18.60;;;;;;;11.44;89.00;99439.20;106464;1310;22342;-69
2022/10/17 01:10:19;;;;;;;23.60;16.50;;;;;;;11.43;88.88;99442.40;106732;1303;22207;-70
2022/10/17 01:12:55;;;;;;;24.90;16.90;;;;;;;11.41;88.76;99443.52;106438;1310;140508;-70
2022/10/17 01:15:56;;;;;;;28.70;17.00;;;;;;;11.40;89.07;99450.65;106472;1312;22203;-70
2022/10/17 01:18:39;;;;;;;28.40;17.40;;;;;;;11.37;88.88;99453.73;106334;1310;138593;-70
2022/10/17 01:21:38;;;;;;;27.30;17.40;;;;;;;11.32;88.66;99454.55;106442;1313;22271;-70
2022/10/17 01:24:35;;;;;;;26.80;16.00;;;;;;;11.28;88.75;99444.39;105654;1318;138540;-70
2022/10/17 01:27:33;;;;;;;24.30;16.20;;;;;;;11.27;89.03;99447.60;106095;1295;22219;-69
2022/10/17 01:30:28;;;;;;;26.70;16.40;;;;;;;11.28;89.02;99445.66;105740;1319;138544;-70
2022/10/17 01:33:02;;;;;;;25.60;16.30;;;;;;;11.29;88.91;99447.66;105908;1318;22317;-69
2022/10/17 01:36:00;;;;;;;23.40;16.50;;;;;;;11.30;89.35;99451.17;105622;1318;138776;-69
2022/10/17 01:38:35;;;;;;;27.80;17.30;;;;;;;11.30;89.75;99449.16;105757;1305;22245;-69
2022/10/17 01:41:24;;;;;;;26.00;17.20;;;;;;;11.31;89.50;99452.80;105816;1316;138639;-69
2022/10/17 01:44:16;;;;;;;27.80;16.50;;;;;;;11.32;89.57;99448.51;105784;1317;22263;-70
2022/10/17 01:46:49;;;;;;;25.70;16.80;;;;;;;11.33;89.96;99448.70;105779;1303;22920;-69
2022/10/17 01:49:21;;;;;;;23.70;16.00;;;;;;;11.34;90.05;99447.10;105899;1317;22300;-69
2022/10/17 01:51:53;;;;;;;22.70;16.00;;;;;;;11.35;90.07;99448.48;105760;1312;22202;-70
2022/10/17 01:54:45;;;;;;;22.80;15.50;;;;;;;11.31;89.20;99449.19;105706;1317;138580;-70
2022/10/17 01:57:22;;;;;;;21.90;16.20;;;;;;;11.15;87.66;99451.62;105623;1318;22402;-69
2022/10/17 01:59:51;;;;;;;25.10;17.20;;;;;;;11.01;88.02;99447.80;105807;1312;139190;-70
2022/10/17 02:02:22;;;;;;;27.10;15.90;;;;;;;10.96;88.72;99450.27;106469;1312;22335;-70
2022/10/17 02:04:51;;;;;;;29.20;17.10;;;;;;;10.95;89.11;99452.80;106450;1310;138729;-69
2022/10/17 02:07:18;;;;;;;23.60;15.70;;;;;;;10.94;89.94;99452.95;106620;1289;22034;-69
2022/10/17 02:09:45;;;;;;;23.90;15.50;;;;;;;10.94;90.07;99452.14;106515;1310;22253;-70
2022/10/17 02:12:30;;;;;;;23.60;15.70;;;;;;;10.97;90.08;99451.66;106425;1305;138598;-71
2022/10/17 02:15:27;;;;;;;26.00;15.70;;;;;;;10.98;90.31;99456.16;106646;1310;22125;-69
2022/10/17 02:17:54;;;;;;;22.60;14.40;;;;;;;10.99;90.18;99450.58;106406;1298;138502;-69
2022/10/17 02:20:36;;;;;;;22.50;15.30;;;;;;;10.99;90.27;99446.27;106480;1313;22107;-70
2022/10/17 02:23:40;;;;;;;20.00;14.90;;;;;;;10.99;90.31;99447.64;106694;1295;138475;-69
2022/10/17 02:26:34;;;;;;;20.80;13.90;;;;;;;10.98;89.94;99447.57;106540;1312;22952;-69
2022/10/17 02:29:18;;;;;;;23.80;15.00;;;;;;;10.96;89.88;99452.49;106416;1311;138444;-69
2022/10/17 02:31:50;;;;;;;21.90;15.10;;;;;;;10.90;89.23;99456.46;106576;1310;22111;-69
2022/10/17 02:34:40;;;;;;;20.60;15.40;;;;;;;10.85;89.30;99456.36;106637;1310;22233;-69
2022/10/17 02:37:11;;;;;;;20.90;15.40;;;;;;;10.81;89.18;99454.67;106448;1310;138207;-70
2022/10/17 02:39:39;;;;;;;24.20;14.70;;;;;;;10.75;88.61;99454.42;106481;1302;22891;-70
2022/10/17 02:42:11;;;;;;;24.60;14.20;;;;;;;10.71;88.66;99453.92;106454;1312;139028;-69
2022/10/17 02:44:41;;;;;;;20.70;14.40;;;;;;;10.67;88.49;99449.16;106551;1310;22202;-69
2022/10/17 02:47:15;;;;;;;20.80;14.30;;;;;;;10.65;88.59;99453.92;106460;1304;139505;-69
2022/10/17 02:49:53;;;;;;;22.10;14.50;;;;;;;10.62;88.98;99457.55;106566;1296;22090;-70
2022/10/17 02:52:34;;;;;;;23.30;15.30;;;;;;;10.62;89.22;99463.25;106530;1313;22285;-71
2022/10/17 02:55:23;;;;;;;23.40;15.00;;;;;;;10.60;89.49;99467.17;106728;1303;139107;-69
2022/10/17 02:57:55;;;;;;;25.20;17.30;;;;;;;10.59;89.77;99470.19;106548;1313;22521;-70
2022/10/17 03:00:24;;;;;;;29.60;19.10;;;;;;;10.59;90.50;99471.57;106339;1298;138637;-69
2022/10/17 03:02:52;;;;;;;25.50;16.50;;;;;;;10.59;90.53;99471.77;106505;1312;22127;-70
2022/10/17 03:05:22;;;;;;;24.00;16.00;;;;;;;10.60;90.36;99468.09;106400;1313;138930;-69
2022/10/17 03:07:50;;;;;;;22.00;14.60;;;;;;;10.59;90.43;99468.08;106544;1313;22855;-69
2022/10/17 03:10:17;;;;;;;22.70;14.50;;;;;;;10.60;90.44;99469.84;106468;1281;22290;-69
2022/10/17 03:12:44;;;;;;;21.70;14.40;;;;;;;10.59;90.35;99470.14;106436;1307;138665;-70
2022/10/17 03:15:12;;;;;;;19.50;13.80;;;;;;;10.57;90.30;99473.50;106492;1305;22218;-69
2022/10/17 03:17:40;;;;;;;22.10;14.30;;;;;;;10.52;90.22;99479.74;106722;1295;138529;-70
2022/10/17 03:20:08;;;;;;;21.30;14.40;;;;;;;10.46;90.19;99481.16;106473;1305;22086;-69
2022/10/17 03:22:35;;;;;;;26.70;15.20;;;;;;;10.39;90.11;99480.45;106499;1313;22866;-70
2022/10/17 03:25:03;;;;;;;19.30;13.70;;;;;;;10.34;90.40;99485.55;106379;1311;138785;-69
2022/10/17 03:27:30;;;;;;;22.10;14.40;;;;;;;10.27;90.29;99485.88;106636;1300;22666;-70
2022/10/17 03:29:56;;;;;;;23.20;15.60;;;;;;;10.23;90.16;99487.53;106399;1302;138487;-69
2022/10/17 03:32:23;;;;;;;25.60;14.00;;;;;;;10.22;90.79;99492.40;106504;1312;22922;-70
2022/10/17 03:34:51;;;;;;;20.40;14.00;;;;;;;10.23;91.04;99495.96;106429;1312;138458;-69
2022/10/17 03:37:18;;;;;;;20.60;13.90;;;;;;;10.24;90.85;99494.36;106793;1296;22068;-70
2022/10/17 03:39:45;;;;;;;21.20;14.40;;;;;;;10.25;91.05;99497.03;106513;1313;22351;-70
2022/10/17 03:42:12;;;;;;;22.20;14.50;;;;;;;10.29;91.56;99508.61;106372;1310;138791;-69
2022/10/17 03:44:39;;;;;;;20.60;13.90;;;;;;;10.29;91.60;99506.52;106465;1310;23004;-70
2022/10/17 03:47:06;;;;;;;22.90;13.70;;;;;;;10.31;91.80;99512.64;106471;1310;138997;-69
2022/10/17 03:49:33;;;;;;;21.20;13.80;;;;;;;10.31;91.88;99510.17;106482;1298;22254;-70
2022/10/17 03:52:00;;;;;;;20.50;14.00;;;;;;;10.34;91.44;99511.89;106537;1312;22778;-70
2022/10/17 03:54:27;;;;;;;20.80;14.40;;;;;;;10.34;91.52;99505.73;106651;1303;138646;-70
2022/10/17 03:56:54;;;;;;;23.20;14.30;;;;;;;10.33;91.12;99504.85;106526;1312;22218;-70
2022/10/17 03:59:22;;;;;;;20.60;13.20;;;;;;;10.32;91.07;99500.01;106620;1306;139628;-69
2022/10/17 04:01:58;;;;;;;20.90;14.10;;;;;;;10.31;91.21;99512.02;106440;1313;22202;-70
2022/10/17 04:04:25;;;;;;;18.30;11.30;;;;;;;10.31;91.77;99518.56;106426;1313;22159;-69
2022/10/17 04:06:51;;;;;;;18.30;12.20;;;;;;;10.27;90.67;99521.81;106328;1290;138607;-70
2022/10/17 04:09:18;;;;;;;16.90;12.60;;;;;;;10.14;89.44;99517.48;106442;1313;22359;-70
2022/10/17 04:12:02;;;;;;;16.40;12.10;;;;;;;10.01;89.15;99515.36;106375;1310;138537;-70
2022/10/17 04:14:30;;;;;;;20.20;13.50;;;;;;;9.95;89.68;99513.08;106533;1313;22352;-69
2022/10/17 04:16:57;;;;;;;22.00;14.60;;;;;;;9.93;90.07;99512.54;106326;1295;140647;-72
2022/10/17 04:19:25;;;;;;;22.40;14.10;;;;;;;9.93;90.55;99511.83;106435;1310;22130;-70
2022/10/17 04:21:52;;;;;;;25.90;15.10;;;;;;;9.93;90.83;99516.19;106476;1305;22489;-70
2022/10/17 04:24:19;;;;;;;31.70;16.30;;;;;;;9.92;91.21;99522.47;106381;1310;139293;-70
2022/10/17 04:26:49;;;;;;;29.00;15.60;;;;;;;9.92;91.34;99525.36;106608;1309;22441;-69
2022/10/17 04:29:17;;;;;;;22.60;15.10;;;;;;;9.93;91.45;99525.94;106406;1313;138565;-70
2022/10/17 04:31:45;;;;;;;22.40;15.00;;;;;;;9.94;91.55;99529.45;106501;1296;22150;-70
2022/10/17 04:34:17;;;;;;;25.00;14.60;;;;;;;9.96;92.10;99536.77;106520;1313;22318;-70
2022/10/17 04:36:45;;;;;;;19.90;13.40;;;;;;;9.98;92.23;99540.04;106421;1313;138330;-69
2022/10/17 04:39:13;;;;;;;22.00;14.00;;;;;;;10.00;92.01;99537.84;106815;1300;22060;-70
2022/10/17 04:41:40;;;;;;;20.20;14.20;;;;;;;10.01;91.95;99538.92;106372;1302;138619;-70
2022/10/17 04:44:08;;;;;;;19.80;13.60;;;;;;;10.02;92.10;99537.75;106509;1313;22256;-69
2022/10/17 04:46:38;;;;;;;21.00;14.00;;;;;;;10.03;92.27;99532.17;106446;1310;22182;-69
2022/10/17 04:49:05;;;;;;;22.20;13.80;;;;;;;10.04;92.27;99537.04;106454;1310;138364;-69
2022/10/17 04:51:33;;;;;;;19.60;13.50;;;;;;;10.06;92.53;99536.02;106735;1295;22108;-70
2022/10/17 04:54:22;;;;;;;20.70;13.80;;;;;;;10.08;92.53;99534.58;106348;1311;138494;-69
2022/10/17 04:56:54;;;;;;;19.50;13.40;;;;;;;10.11;92.72;99537.81;106779;1296;22280;-69
2022/10/17 04:59:21;;;;;;;22.20;13.80;;;;;;;10.12;92.71;99541.90;106541;1306;138686;-69
2022/10/17 05:01:53;;;;;;;20.10;13.70;;;;;;;10.14;92.84;99542.90;106474;1302;22182;-69
2022/10/17 05:04:19;;;;;;;22.90;15.20;;;;;;;10.15;92.64;99547.52;106728;1303;22098;-69
2022/10/17 05:06:48;;;;;;;31.40;16.00;;;;;;;10.16;92.78;99546.16;106662;1303;138532;-70
2022/10/17 05:09:27;;;;;;;29.20;15.10;;;;;;;10.17;93.00;99545.07;106506;1313;22086;-70
2022/10/17 05:11:54;;;;;;;23.70;14.80;;;;;;;10.19;93.06;99541.92;106369;1294;138988;-69
2022/10/17 05:14:21;;;;;;;18.80;14.30;;;;;;;10.20;93.09;99547.37;106550;1311;22129;-70
2022/10/17 05:16:48;;;;;;;23.70;14.40;;;;;;;10.23;93.15;99548.06;106489;1305;22090;-70
2022/10/17 05:19:17;;;;;;;26.10;16.00;;;;;;;10.26;93.30;99548.71;106474;1312;22218;-69
2022/10/17 05:21:45;;;;;;;22.00;13.50;;;;;;;10.28;93.27;99550.01;106694;1306;22252;-70
2022/10/17 05:24:13;;;;;;;23.50;13.00;;;;;;;10.30;92.95;99548.98;106471;1312;138525;-70
2022/10/17 05:26:40;;;;;;;19.80;12.60;;;;;;;10.32;92.73;99546.27;106806;1297;22897;-70
2022/10/17 05:29:07;;;;;;;21.10;13.40;;;;;;;10.33;92.29;99546.11;106457;1310;138937;-70
2022/10/17 05:31:37;;;;;;;18.30;12.60;;;;;;;10.34;92.75;99544.35;106509;1302;23085;-70
2022/10/17 05:34:05;;;;;;;21.70;13.50;;;;;;;10.36;92.57;99548.96;106518;1313;22234;-69
2022/10/17 05:36:33;;;;;;;17.20;12.30;;;;;;;10.38;92.44;99553.05;106385;1312;138770;-70
2022/10/17 05:39:00;;;;;;;22.50;14.10;;;;;;;10.41;92.59;99556.64;106480;1310;22201;-71
2022/10/17 05:41:28;;;;;;;27.40;15.60;;;;;;;10.38;91.74;99560.93;106217;1302;138872;-70
2022/10/17 05:43:55;;;;;;;26.70;14.40;;;;;;;10.34;91.56;99556.80;106380;1313;22176;-70
2022/10/17 05:46:31;;;;;;;18.40;12.90;;;;;;;10.35;92.10;99561.28;106395;1299;22058;-69
2022/10/17 05:48:58;;;;;;;20.30;12.00;;;;;;;10.37;92.31;99567.72;106331;1312;138914;-69
2022/10/17 05:51:25;;;;;;;21.10;13.80;;;;;;;10.40;92.12;99564.77;106601;1288;22215;-70
2022/10/17 05:53:53;;;;;;;23.10;13.60;;;;;;;10.42;92.38;99572.60;106356;1311;138554;-70
2022/10/17 05:56:23;;;;;;;17.10;12.90;;;;;;;10.47;92.57;99579.23;106254;1313;22236;-69
2022/10/17 05:58:50;;;;;;;18.80;13.90;;;;;;;10.52;92.71;99585.58;106398;1311;138719;-70
2022/10/17 06:01:29;;;;;;;19.80;12.60;;;;;;;10.50;91.11;99590.21;106469;1313;22217;-71
2022/10/17 06:03:55;;;;;;;20.50;12.30;;;;;;;10.38;89.41;99590.63;106445;1305;22237;-70
2022/10/17 06:06:22;;;;;;;23.80;14.10;;;;;;;10.28;89.17;99589.30;106453;1313;138533;-70
2022/10/17 06:08:50;;;;;;;19.80;12.30;;;;;;;10.21;89.16;99588.90;106480;1310;22289;-70
2022/10/17 06:11:23;;;;;;;19.90;12.80;;;;;;;10.20;89.55;99594.95;106324;1313;138759;-70
2022/10/17 06:13:50;;;;;;;18.40;13.20;;;;;;;10.20;90.04;99593.92;106462;1304;22197;-69
2022/10/17 06:16:22;;;;;;;21.30;12.70;;;;;;;10.24;90.43;99598.48;106454;1310;22854;-70
2022/10/17 06:18:48;;;;;;;17.40;11.90;;;;;;;10.28;90.90;99607.34;106351;1310;138559;-73
2022/10/17 06:21:25;;;;;;;20.20;13.30;;;;;;;10.38;91.99;99609.13;106475;1310;22209;-71
2022/10/17 06:23:55;;;;;;;21.80;13.00;;;;;;;10.53;92.24;99611.55;106310;1290;139695;-72
2022/10/17 06:26:29;;;;;;;22.00;13.50;;;;;;;10.73;93.03;99614.73;106636;1306;22313;-72
2022/10/17 06:28:57;;;;;;;21.70;13.80;;;;;;;10.96;93.71;99617.67;106320;1310;138519;-70
2022/10/17 06:31:24;;;;;;;23.20;13.70;;;;;;;11.13;92.28;99620.66;106457;1313;22803;-70
2022/10/17 06:33:51;;;;;;;33.80;15.60;;;;;;;11.23;91.79;99618.73;106532;1298;22263;-70
2022/10/17 06:36:18;;;;;;;24.90;14.90;;;;;;;11.27;91.18;99623.96;106347;1311;138706;-70
2022/10/17 06:38:48;;;;;;;28.50;14.30;;;;;;;11.29;90.19;99626.59;106470;1313;22154;-69
2022/10/17 06:41:23;;;;;;;28.70;14.90;;;;;;;11.29;90.34;99633.42;106637;1287;138498;-70
2022/10/17 06:43:52;;;;;;;27.00;16.90;;;;;;;11.31;90.44;99628.55;106388;1291;22087;-70
2022/10/17 06:46:40;;;;;;;26.60;14.60;;;;;;;11.34;90.73;99635.23;106477;1313;22258;-70
2022/10/17 06:49:09;;;;;;;21.10;13.50;;;;;;;11.39;90.97;99639.98;106359;1312;138414;-69
2022/10/17 06:52:09;;;;;;;18.90;13.00;;;;;;;11.46;90.88;99638.23;106522;1304;22539;-69
2022/10/17 06:54:47;;;;;;;22.80;13.40;;;;;;;11.52;91.04;99640.23;106364;1304;138677;-69
2022/10/17 06:57:36;;;;;;;19.60;12.20;;;;;;;11.58;90.87;99643.11;106851;1295;22149;-70
2022/10/17 07:00:34;;;;;;;24.00;13.00;;;;;;;11.65;90.88;99645.08;106398;1310;138549;-70
2022/10/17 07:03:02;;;;;;;22.70;13.60;;;;;;;11.71;90.92;99647.15;106477;1299;22209;-71
2022/10/17 07:05:29;;;;;;;20.10;12.60;;;;;;;11.78;90.96;99650.54;106381;1313;138557;-69
2022/10/17 07:07:56;;;;;;;21.90;13.20;;;;;;;11.86;91.01;99651.77;106432;1313;22910;-70
2022/10/17 07:10:23;;;;;;;19.70;12.80;;;;;;;11.95;91.19;99651.27;106515;1311;22159;-69
2022/10/17 07:12:49;;;;;;;18.40;13.60;;;;;;;12.04;91.14;99651.20;106284;1312;138399;-69
2022/10/17 07:15:16;;;;;;;22.90;13.70;;;;;;;12.12;90.81;99651.85;106521;1298;22226;-69
2022/10/17 07:17:49;;;;;;;20.80;13.80;;;;;;;12.20;90.36;99648.73;106440;1310;138422;-70
2022/10/17 07:20:16;;;;;;;23.20;13.00;;;;;;;12.29;90.21;99652.67;106482;1310;22110;-70
2022/10/17 07:22:43;;;;;;;20.40;13.20;;;;;;;12.37;89.86;99656.20;106523;1311;22343;-69
2022/10/17 07:25:10;;;;;;;23.00;13.20;;;;;;;12.46;89.71;99657.33;106421;1291;138307;-69
2022/10/17 07:27:43;;;;;;;20.40;12.90;;;;;;;12.54;89.53;99658.66;106450;1313;22213;-70
2022/10/17 07:30:11;;;;;;;14.40;11.00;;;;;;;12.63;89.01;99651.66;106324;1313;138535;-70
2022/10/17 07:32:41;;;;;;;21.80;10.50;;;;;;;12.72;88.45;99651.21;106543;1312;22059;-70
2022/10/17 07:35:10;;;;;;;18.40;11.80;;;;;;;12.82;88.13;99647.33;106361;1305;138921;-69
2022/10/17 07:37:38;;;;;;;18.50;12.00;;;;;;;12.92;88.12;99645.64;106518;1296;22729;-69
2022/10/17 07:40:07;;;;;;;17.30;10.80;;;;;;;13.03;88.13;99646.59;106526;1313;23043;-69
2022/10/17 07:42:37;;;;;;;16.30;11.60;;;;;;;13.13;87.66;99646.53;106410;1313;138367;-69
2022/10/17 07:45:05;;;;;;;18.00;10.80;;;;;;;13.22;86.99;99648.42;106522;1297;22236;-70
2022/10/17 07:47:34;;;;;;;17.60;10.80;;;;;;;13.31;86.47;99643.84;106316;1313;138979;-70
2022/10/17 07:50:02;;;;;;;16.10;10.40;;;;;;;13.41;85.96;99645.11;106235;1311;22291;-69
2022/10/17 07:52:29;;;;;;;17.90;10.80;;;;;;;13.51;85.83;99644.47;106531;1311;22255;-70
2022/10/17 07:54:56;;;;;;;21.90;11.20;;;;;;;13.61;85.54;99645.46;106427;1296;138401;-69
2022/10/17 07:57:23;;;;;;;15.40;11.00;;;;;;;13.72;85.09;99651.70;106583;1310;22104;-69
2022/10/17 07:59:50;;;;;;;22.50;11.50;;;;;;;13.81;84.62;99653.67;106679;1297;138584;-70
2022/10/17 08:02:22;;;;;;;18.70;11.20;;;;;;;13.91;84.04;99661.67;106510;1303;22160;-69
2022/10/17 08:04:50;;;;;;;22.90;11.10;;;;;;;14.00;83.29;99666.77;106420;1295;138539;-70
2022/10/17 08:07:18;;;;;;;19.90;11.00;;;;;;;14.11;82.94;99665.59;106535;1312;22212;-70
2022/10/17 08:09:46;;;;;;;18.10;10.90;;;;;;;14.19;82.31;99666.40;106633;1300;22969;-70
2022/10/17 08:12:14;;;;;;;19.00;11.40;;;;;;;14.29;82.21;99662.97;106410;1312;138473;-70
2022/10/17 08:14:41;;;;;;;26.90;16.20;;;;;;;14.39;81.55;99661.52;106507;1302;23049;-69
2022/10/17 08:17:08;;;;;;;18.90;11.80;;;;;;;14.50;81.32;99661.52;106735;1292;138593;-69
2022/10/17 08:19:39;;;;;;;19.90;10.60;;;;;;;14.60;80.99;99659.95;106600;1310;22094;-70
2022/10/17 08:22:07;;;;;;;19.80;11.20;;;;;;;14.71;80.28;99663.32;106567;1310;22807;-70
2022/10/17 08:24:34;;;;;;;17.40;11.40;;;;;;;14.82;80.30;99666.60;106485;1310;138362;-69
2022/10/17 08:27:02;;;;;;;18.10;10.90;;;;;;;14.93;79.79;99667.16;106487;1298;22970;-69
2022/10/17 08:29:31;;;;;;;18.50;10.70;;;;;;;15.02;79.39;99661.20;106405;1289;138805;-69
2022/10/17 08:31:58;;;;;;;16.60;10.40;;;;;;;15.10;78.97;99663.11;106507;1294;22945;-69
2022/10/17 08:34:26;;;;;;;18.00;10.90;;;;;;;15.19;78.66;99662.67;106528;1313;22241;-69
2022/10/17 08:36:54;;;;;;;16.20;10.00;;;;;;;15.29;78.39;99662.36;106449;1294;138419;-70
2022/10/17 08:39:21;;;;;;;17.70;10.30;;;;;;;15.39;77.98;99661.95;106534;1304;22729;-69
2022/10/17 08:42:19;;;;;;;14.60;9.70;;;;;;;15.49;77.42;99659.36;106467;1280;138364;-70
2022/10/17 08:45:13;;;;;;;18.80;10.40;;;;;;;15.62;77.32;99664.83;106836;1299;22753;-70
2022/10/17 08:47:44;;;;;;;18.40;9.70;;;;;;;15.75;77.03;99665.81;106405;1313;138531;-70
2022/10/17 08:50:19;;;;;;;20.40;9.50;;;;;;;15.86;77.02;99669.19;106531;1313;22679;-70
2022/10/17 08:52:53;;;;;;;17.40;10.10;;;;;;;15.96;76.65;99670.56;106737;1300;23202;-69
2022/10/17 08:55:31;;;;;;;16.90;10.20;;;;;;;16.06;75.89;99671.88;106519;1304;22490;-69
2022/10/17 08:57:59;;;;;;;18.00;9.20;;;;;;;16.15;74.97;99669.54;106570;1306;21999;-69
2022/10/17 09:00:29;;;;;;;18.40;10.20;;;;;;;16.22;74.28;99669.48;106456;1310;138114;-69
2022/10/17 09:03:02;;;;;;;20.00;9.90;;;;;;;16.31;74.02;99671.69;106513;1311;22107;-69
2022/10/17 09:05:41;;;;;;;15.30;9.90;;;;;;;16.43;74.04;99672.46;106458;1310;138333;-70
2022/10/17 09:08:33;;;;;;;16.80;9.40;;;;;;;16.56;73.55;99669.45;106741;1298;22055;-69
2022/10/17 09:11:17;;;;;;;21.10;10.00;;;;;;;16.69;72.57;99667.80;106444;1311;138387;-69
2022/10/17 09:13:49;;;;;;;17.60;10.00;;;;;;;16.82;72.82;99666.38;106739;1295;22104;-69
2022/10/17 09:17:03;;;;;;;17.80;9.50;;;;;;;16.95;72.36;99664.13;106533;1301;22178;-70
2022/10/17 09:19:47;;;;;;;13.90;8.90;;;;;;;17.08;71.80;99662.08;106006;1317;22923;-69
2022/10/17 09:22:20;;;;;;;19.40;9.30;;;;;;;17.18;71.74;99658.11;106000;1316;22879;-69
2022/10/17 09:25:05;;;;;;;10.70;8.10;;;;;;;17.29;71.36;99661.31;106330;1309;138338;-69
2022/10/17 09:27:48;;;;;;;16.50;9.30;;;;;;;17.39;70.86;99657.95;105978;1300;22218;-70
2022/10/17 09:30:21;;;;;;;17.40;10.40;;;;;;;17.50;70.52;99668.85;106281;1296;138346;-70
2022/10/17 09:32:49;;;;;;;19.10;9.40;;;;;;;17.60;69.80;99670.27;106408;1309;22163;-69
2022/10/17 09:35:17;;;;;;;14.50;8.40;;;;;;;17.70;69.01;99676.30;106310;1303;138530;-69
2022/10/17 09:37:44;;;;;;;16.30;9.10;;;;;;;17.81;68.47;99675.84;106384;1287;22939;-69
2022/10/17 09:40:23;;;;;;;17.80;8.20;;;;;;;17.91;67.93;99674.08;106409;1303;22428;-69
2022/10/17 09:42:50;;;;;;;11.70;8.00;;;;;;;18.04;67.82;99675.94;105907;1317;138153;-69
2022/10/17 09:45:24;;;;;;;16.20;8.80;;;;;;;18.15;67.00;99674.48;106012;1295;22093;-69
2022/10/17 09:48:00;;;;;;;19.50;9.10;;;;;;;18.26;66.80;99670.03;105888;1301;137839;-70
2022/10/17 09:50:30;;;;;;;12.10;8.50;;;;;;;18.38;66.77;99671.10;106598;1303;22152;-69
2022/10/17 09:53:12;;;;;;;14.10;7.90;;;;;;;18.49;66.46;99670.98;106489;1307;138222;-69
2022/10/17 09:55:47;;;;;;;11.90;7.40;;;;;;;18.60;66.16;99667.30;106895;1288;22054;-70
2022/10/17 09:58:14;;;;;;;14.10;7.80;;;;;;;18.75;65.83;99664.39;106471;1299;22785;-70
2022/10/17 10:00:44;;;;;;;12.90;8.50;;;;;;;18.86;64.94;99668.21;106441;1309;137446;-70
2022/10/17 10:03:13;;;;;;;14.60;7.80;;;;;;;18.95;64.55;99667.41;106801;1284;22231;-69
2022/10/17 10:05:42;;;;;;;12.50;7.80;;;;;;;19.04;64.60;99662.16;106683;1303;137681;-70
2022/10/17 10:08:15;;;;;;;;;;;;;;;19.13;64.37;99662.95;106774;1298;22384;-69
2022/10/17 10:10:43;;;;;;;10.60;7.60;;;;;;;19.22;63.71;99658.13;106514;1312;22825;-69
2022/10/17 10:13:13;;;;;;;10.20;7.00;;;;;;;19.32;63.70;99657.58;106537;1292;137530;-69
2022/10/17 10:15:45;;;;;;;10.40;7.10;;;;;;;19.43;63.97;99655.61;106755;1304;22116;-70
2022/10/17 10:18:34;;;;;;;11.80;7.50;;;;;;;19.55;63.38;99654.35;106434;1310;138082;-70
2022/10/17 10:21:13;;;;;;;12.10;7.50;;;;;;;19.66;62.55;99656.85;106541;1310;22771;-70
2022/10/17 10:23:43;;;;;;;10.70;7.00;;;;;;;19.77;62.39;99653.58;106498;1310;137753;-71
2022/10/17 10:26:21;;;;;;;11.60;7.50;;;;;;;19.88;61.94;99653.00;106576;1310;22155;-70
2022/10/17 10:28:58;;;;;;;13.00;7.40;;;;;;;20.00;61.42;99655.34;106503;1298;22033;-70
2022/10/17 10:31:29;;;;;;;9.50;6.40;;;;;;;20.11;60.43;99651.66;106520;1313;22101;-69
2022/10/17 10:33:58;;;;;;;10.60;7.40;;;;;;;20.20;60.10;99648.72;106764;1303;22271;-69
2022/10/17 10:36:25;;;;;;;;;;;;;;;20.28;59.64;99649.31;106408;1312;137529;-69
2022/10/17 10:38:56;;;;;;;10.40;7.60;;;;;;;20.35;59.70;99650.40;106545;1298;22195;-69
2022/10/17 10:41:26;;;;;;;11.10;7.30;;;;;;;20.44;59.78;99651.38;106503;1310;137730;-69
2022/10/17 10:43:54;;;;;;;11.80;7.50;;;;;;;20.54;59.36;99652.67;106594;1310;22087;-69
2022/10/17 10:46:27;;;;;;;18.40;7.50;;;;;;;20.62;58.68;99649.23;106585;1288;22532;-69
2022/10/17 10:48:57;;;;;;;11.00;7.20;;;;;;;20.69;58.29;99644.83;106389;1296;137447;-69
2022/10/17 10:51:46;;;;;;;12.80;7.50;;;;;;;20.76;58.32;99637.78;106499;1293;22269;-69
2022/10/17 10:54:28;;;;;;;12.30;7.50;;;;;;;20.86;58.46;99636.23;106320;1313;138364;-70
2022/10/17 10:56:58;;;;;;;10.70;7.40;;;;;;;20.95;58.90;99634.20;106510;1307;22114;-69
2022/10/17 10:59:34;;;;;;;10.20;7.20;;;;;;;21.04;58.65;99634.87;106415;1310;137632;-69
2022/10/17 11:02:18;;;;;;;11.90;7.20;;;;;;;21.13;58.33;99637.38;106531;1310;22200;-69
2022/10/17 11:05:19;;;;;;;11.10;7.20;;;;;;;21.22;57.51;99635.55;106491;1296;22193;-69
2022/10/17 11:07:57;;;;;;;13.00;7.20;;;;;;;21.30;57.17;99631.17;106390;1310;223327;-70
2022/10/17 11:10:36;;;;;;;12.80;7.00;;;;;;;21.37;56.64;99628.41;106707;1289;22279;-70
2022/10/17 11:13:10;;;;;;;;;;;;;;;21.46;56.60;99628.03;106434;1312;137462;-69
2022/10/17 11:15:50;;;;;;;11.00;6.90;;;;;;;21.51;55.65;99624.56;106537;1297;22163;-69
2022/10/17 11:18:17;;;;;;;10.30;6.60;;;;;;;21.55;54.82;99626.20;106423;1312;138689;-69
2022/10/17 11:20:46;;;;;;;11.60;6.80;;;;;;;21.61;55.28;99627.54;106527;1298;22762;-69
2022/10/17 11:23:23;;;;;;;9.50;6.30;;;;;;;21.68;54.99;99624.42;106462;1305;138234;-69
2022/10/17 11:25:52;;;;;;;11.10;6.90;;;;;;;21.75;55.08;99624.59;106437;1310;23074;-69
2022/10/17 11:28:22;;;;;;;13.20;7.50;;;;;;;21.82;55.22;99621.48;106416;1310;22360;-69
2022/10/17 11:30:55;;;;;;;11.60;7.30;;;;;;;21.88;54.67;99617.38;106372;1310;137552;-70
2022/10/17 11:33:42;;;;;;;10.50;6.70;;;;;;;21.93;54.10;99618.78;106506;1312;22150;-70